createdAt,value
2018-03-15T00:00:22.974Z,1008.74
2018-03-15T00:01:23.393Z,1008.74
2018-03-15T00:02:23.838Z,1008.73
2018-03-15T00:03:24.254Z,1008.74
2018-03-15T00:04:24.668Z,1008.78
2018-03-15T00:05:25.093Z,1008.78
2018-03-15T00:06:25.505Z,1008.78
2018-03-15T00:07:25.927Z,1008.74
2018-03-15T00:08:26.348Z,1008.71
2018-03-15T00:09:26.776Z,1008.69
2018-03-15T00:10:27.197Z,1008.70
2018-03-15T00:11:27.618Z,1008.66
2018-03-15T00:12:28.033Z,1008.70
2018-03-15T00:13:28.458Z,1008.67
2018-03-15T00:14:28.884Z,1008.63
2018-03-15T00:15:29.300Z,1008.65
2018-03-15T00:16:29.717Z,1008.68
2018-03-15T00:17:30.154Z,1008.67
2018-03-15T00:18:30.564Z,1008.67
2018-03-15T00:19:30.988Z,1008.68
2018-03-15T00:20:31.409Z,1008.67
2018-03-15T00:21:31.835Z,1008.66
2018-03-15T00:22:32.263Z,1008.67
2018-03-15T00:23:32.692Z,1008.71
2018-03-15T00:24:33.100Z,1008.69
2018-03-15T00:25:33.520Z,1008.66
2018-03-15T00:26:33.939Z,1008.66
2018-03-15T00:27:34.360Z,1008.67
2018-03-15T00:28:34.792Z,1008.63
2018-03-15T00:29:35.203Z,1008.61
2018-03-15T00:30:35.631Z,1008.64
2018-03-15T00:31:36.055Z,1008.59
2018-03-15T00:32:36.471Z,1008.56
2018-03-15T00:33:36.893Z,1008.58
2018-03-15T00:34:37.317Z,1008.53
2018-03-15T00:35:37.737Z,1008.54
2018-03-15T00:36:38.153Z,1008.51
2018-03-15T00:37:38.584Z,1008.50
2018-03-15T00:38:39.012Z,1008.54
2018-03-15T00:39:39.475Z,1008.52
2018-03-15T00:40:39.845Z,1008.48
2018-03-15T00:41:40.272Z,1008.46
2018-03-15T00:42:40.692Z,1008.44
2018-03-15T00:43:41.109Z,1008.43
2018-03-15T00:44:41.531Z,1008.41
2018-03-15T00:45:41.957Z,1008.41
2018-03-15T00:46:42.376Z,1008.37
2018-03-15T00:47:42.796Z,1008.36
2018-03-15T00:48:43.219Z,1008.39
2018-03-15T00:49:43.652Z,1008.39
2018-03-15T00:50:44.064Z,1008.39
2018-03-15T00:51:44.485Z,1008.45
2018-03-15T00:52:44.916Z,1008.42
2018-03-15T00:53:45.328Z,1008.43
2018-03-15T00:54:45.749Z,1008.41
2018-03-15T00:55:46.173Z,1008.42
2018-03-15T00:56:46.592Z,1008.41
2018-03-15T00:57:47.015Z,1008.39
2018-03-15T00:58:47.438Z,1008.38
2018-03-15T00:59:47.860Z,1008.35
2018-03-15T01:00:48.277Z,1008.36
2018-03-15T01:01:48.721Z,1008.35
2018-03-15T01:02:49.126Z,1008.33
2018-03-15T01:03:49.551Z,1008.32
2018-03-15T01:04:49.978Z,1008.28
2018-03-15T01:05:50.388Z,1008.32
2018-03-15T01:06:50.807Z,1008.32
2018-03-15T01:07:51.229Z,1008.33
2018-03-15T01:08:51.652Z,1008.31
2018-03-15T01:09:52.080Z,1008.31
2018-03-15T01:10:52.498Z,1008.29
2018-03-15T01:11:52.915Z,1008.31
2018-03-15T01:12:53.339Z,1008.27
2018-03-15T01:13:53.757Z,1008.27
2018-03-15T01:14:54.180Z,1008.26
2018-03-15T01:15:54.601Z,1008.26
2018-03-15T01:16:55.024Z,1008.21
2018-03-15T01:17:55.440Z,1008.24
2018-03-15T01:18:55.868Z,1008.25
2018-03-15T01:19:56.284Z,1008.27
2018-03-15T01:20:56.709Z,1008.28
2018-03-15T01:21:57.151Z,1008.30
2018-03-15T01:22:57.556Z,1008.26
2018-03-15T01:23:57.976Z,1008.27
2018-03-15T01:24:58.398Z,1008.21
2018-03-15T01:25:58.821Z,1008.25
2018-03-15T01:26:59.241Z,1008.22
2018-03-15T01:27:59.665Z,1008.17
2018-03-15T01:29:00.130Z,1008.21
2018-03-15T01:30:00.503Z,1008.19
2018-03-15T01:31:00.928Z,1008.20
2018-03-15T01:32:01.347Z,1008.13
2018-03-15T01:33:01.769Z,1008.13
2018-03-15T01:34:02.188Z,1008.15
2018-03-15T01:35:02.609Z,1008.17
2018-03-15T01:36:03.039Z,1008.11
2018-03-15T01:37:03.454Z,1008.10
2018-03-15T01:38:03.883Z,1008.09
2018-03-15T01:39:04.303Z,1008.07
2018-03-15T01:40:04.723Z,1008.09
2018-03-15T01:41:05.142Z,1008.06
2018-03-15T01:42:05.562Z,1008.04
2018-03-15T01:43:06.002Z,1008.02
2018-03-15T01:44:06.414Z,1008.09
2018-03-15T01:45:06.841Z,1008.00
2018-03-15T01:46:07.254Z,1008.00
2018-03-15T01:47:07.682Z,1007.98
2018-03-15T01:48:08.113Z,1008.01
2018-03-15T01:49:08.512Z,1007.97
2018-03-15T01:50:08.937Z,1007.98
2018-03-15T01:51:09.355Z,1008.02
2018-03-15T01:52:09.785Z,1008.01
2018-03-15T01:53:10.200Z,1007.94
2018-03-15T01:54:10.622Z,1007.96
2018-03-15T01:55:11.046Z,1007.99
2018-03-15T01:56:11.464Z,1007.94
2018-03-15T01:57:11.887Z,1007.94
2018-03-15T01:58:12.316Z,1007.92
2018-03-15T01:59:12.736Z,1007.90
2018-03-15T02:00:13.152Z,1007.93
2018-03-15T02:01:13.577Z,1007.92
2018-03-15T02:02:13.996Z,1007.88
2018-03-15T02:03:14.427Z,1007.87
2018-03-15T02:04:14.854Z,1007.84
2018-03-15T02:05:15.263Z,1007.87
2018-03-15T02:06:15.686Z,1007.85
2018-03-15T02:07:16.158Z,1007.82
2018-03-15T02:08:16.524Z,1007.82
2018-03-15T02:09:16.951Z,1007.82
2018-03-15T02:10:17.370Z,1007.77
2018-03-15T02:11:17.791Z,1007.78
2018-03-15T02:12:18.216Z,1007.80
2018-03-15T02:13:18.637Z,1007.78
2018-03-15T02:14:19.064Z,1007.80
2018-03-15T02:15:19.487Z,1007.80
2018-03-15T02:16:19.914Z,1007.77
2018-03-15T02:17:20.322Z,1007.80
2018-03-15T02:18:20.743Z,1007.81
2018-03-15T02:19:21.168Z,1007.81
2018-03-15T02:20:21.591Z,1007.82
2018-03-15T02:21:22.010Z,1007.81
2018-03-15T02:22:22.448Z,1007.82
2018-03-15T02:23:22.863Z,1007.77
2018-03-15T02:24:23.279Z,1007.79
2018-03-15T02:25:23.694Z,1007.76
2018-03-15T02:26:24.117Z,1007.78
2018-03-15T02:27:24.538Z,1007.73
2018-03-15T02:28:24.958Z,1007.74
2018-03-15T02:29:25.383Z,1007.74
2018-03-15T02:30:25.815Z,1007.72
2018-03-15T02:31:26.228Z,1007.73
2018-03-15T02:32:26.659Z,1007.67
2018-03-15T02:33:27.082Z,1007.71
2018-03-15T02:34:27.497Z,1007.69
2018-03-15T02:35:27.912Z,1007.69
2018-03-15T02:36:28.338Z,1007.71
2018-03-15T02:37:28.752Z,1007.72
2018-03-15T02:38:29.179Z,1007.73
2018-03-15T02:39:29.598Z,1007.74
2018-03-15T02:40:30.025Z,1007.77
2018-03-15T02:41:30.458Z,1007.76
2018-03-15T02:42:30.872Z,1007.81
2018-03-15T02:43:31.287Z,1007.78
2018-03-15T02:44:31.714Z,1007.76
2018-03-15T02:45:32.135Z,1007.77
2018-03-15T02:46:32.553Z,1007.73
2018-03-15T02:47:32.972Z,1007.79
2018-03-15T02:48:33.398Z,1007.77
2018-03-15T02:49:33.817Z,1007.79
2018-03-15T02:50:34.247Z,1007.77
2018-03-15T02:51:34.659Z,1007.77
2018-03-15T02:52:35.091Z,1007.78
2018-03-15T02:53:35.504Z,1007.76
2018-03-15T02:54:35.927Z,1007.76
2018-03-15T02:55:36.343Z,1007.77
2018-03-15T02:56:36.767Z,1007.73
2018-03-15T02:57:37.186Z,1007.71
2018-03-15T02:58:37.606Z,1007.66
2018-03-15T02:59:38.026Z,1007.66
2018-03-15T03:00:38.454Z,1007.68
2018-03-15T03:01:38.892Z,1007.71
2018-03-15T03:02:39.296Z,1007.64
2018-03-15T03:03:39.725Z,1007.72
2018-03-15T03:04:40.143Z,1007.71
2018-03-15T03:05:40.565Z,1007.69
2018-03-15T03:06:40.983Z,1007.76
2018-03-15T03:07:41.407Z,1007.74
2018-03-15T03:08:41.822Z,1007.71
2018-03-15T03:09:42.246Z,1007.73
2018-03-15T03:10:42.674Z,1007.72
2018-03-15T03:11:43.086Z,1007.74
2018-03-15T03:12:43.520Z,1007.75
2018-03-15T03:13:43.935Z,1007.75
2018-03-15T03:14:44.381Z,1007.73
2018-03-15T03:15:44.779Z,1007.75
2018-03-15T03:16:45.197Z,1007.74
2018-03-15T03:17:45.625Z,1007.73
2018-03-15T03:18:46.036Z,1007.74
2018-03-15T03:19:46.463Z,1007.76
2018-03-15T03:20:46.885Z,1007.78
2018-03-15T03:21:47.304Z,1007.81
2018-03-15T03:22:47.737Z,1007.81
2018-03-15T03:23:48.156Z,1007.78
2018-03-15T03:24:48.576Z,1007.80
2018-03-15T03:25:48.994Z,1007.78
2018-03-15T03:26:49.416Z,1007.76
2018-03-15T03:27:49.841Z,1007.79
2018-03-15T03:28:50.253Z,1007.73
2018-03-15T03:29:50.685Z,1007.76
2018-03-15T03:30:51.105Z,1007.77
2018-03-15T03:31:51.526Z,1007.82
2018-03-15T03:32:51.957Z,1007.79
2018-03-15T03:33:52.365Z,1007.81
2018-03-15T03:34:52.799Z,1007.78
2018-03-15T03:35:53.206Z,1007.79
2018-03-15T03:36:53.626Z,1007.74
2018-03-15T03:37:54.055Z,1007.79
2018-03-15T03:38:54.471Z,1007.79
2018-03-15T03:39:54.889Z,1007.75
2018-03-15T03:40:55.355Z,1007.78
2018-03-15T03:41:55.739Z,1007.79
2018-03-15T03:42:56.158Z,1007.75
2018-03-15T03:43:56.584Z,1007.78
2018-03-15T03:44:57.010Z,1007.73
2018-03-15T03:45:57.418Z,1007.75
2018-03-15T03:46:57.843Z,1007.69
2018-03-15T03:47:58.267Z,1007.69
2018-03-15T03:48:58.682Z,1007.70
2018-03-15T03:49:59.104Z,1007.68
2018-03-15T03:50:59.542Z,1007.71
2018-03-15T03:51:59.950Z,1007.63
2018-03-15T03:53:00.371Z,1007.61
2018-03-15T03:54:00.796Z,1007.66
2018-03-15T03:55:01.225Z,1007.66
2018-03-15T03:56:01.641Z,1007.64
2018-03-15T03:57:02.059Z,1007.67
2018-03-15T03:58:02.480Z,1007.67
2018-03-15T03:59:02.907Z,1007.63
2018-03-15T04:00:03.322Z,1007.64
2018-03-15T04:01:03.765Z,1007.59
2018-03-15T04:02:04.165Z,1007.64
2018-03-15T04:03:04.603Z,1007.66
2018-03-15T04:04:05.013Z,1007.67
2018-03-15T04:05:05.434Z,1007.64
2018-03-15T04:06:05.852Z,1007.67
2018-03-15T04:07:06.269Z,1007.61
2018-03-15T04:08:06.697Z,1007.62
2018-03-15T04:09:07.115Z,1007.63
2018-03-15T04:10:07.538Z,1007.62
2018-03-15T04:11:07.984Z,1007.60
2018-03-15T04:12:08.381Z,1007.64
2018-03-15T04:13:08.799Z,1007.62
2018-03-15T04:14:09.234Z,1007.65
2018-03-15T04:15:09.646Z,1007.66
2018-03-15T04:16:10.072Z,1007.66
2018-03-15T04:17:10.489Z,1007.64
2018-03-15T04:18:10.905Z,1007.62
2018-03-15T04:19:11.328Z,1007.60
2018-03-15T04:20:11.749Z,1007.59
2018-03-15T04:21:12.173Z,1007.60
2018-03-15T04:22:12.594Z,1007.60
2018-03-15T04:23:13.016Z,1007.61
2018-03-15T04:24:13.432Z,1007.57
2018-03-15T04:25:13.872Z,1007.55
2018-03-15T04:26:14.283Z,1007.57
2018-03-15T04:27:14.706Z,1007.59
2018-03-15T04:28:15.130Z,1007.53
2018-03-15T04:29:15.545Z,1007.53
2018-03-15T04:30:15.972Z,1007.51
2018-03-15T04:31:16.408Z,1007.53
2018-03-15T04:32:16.811Z,1007.53
2018-03-15T04:33:17.239Z,1007.53
2018-03-15T04:34:17.653Z,1007.51
2018-03-15T04:35:18.075Z,1007.55
2018-03-15T04:36:18.489Z,1007.53
2018-03-15T04:37:18.912Z,1007.54
2018-03-15T04:38:19.342Z,1007.53
2018-03-15T04:39:19.754Z,1007.57
2018-03-15T04:40:20.184Z,1007.54
2018-03-15T04:41:20.596Z,1007.53
2018-03-15T04:42:21.016Z,1007.51
2018-03-15T04:43:21.446Z,1007.46
2018-03-15T04:44:21.864Z,1007.51
2018-03-15T04:45:22.279Z,1007.47
2018-03-15T04:46:22.701Z,1007.43
2018-03-15T04:47:23.131Z,1007.38
2018-03-15T04:48:23.569Z,1007.39
2018-03-15T04:49:23.974Z,1007.38
2018-03-15T04:50:24.421Z,1007.45
2018-03-15T04:51:24.819Z,1007.43
2018-03-15T04:52:25.241Z,1007.42
2018-03-15T04:53:25.655Z,1007.40
2018-03-15T04:54:26.090Z,1007.32
2018-03-15T04:55:26.499Z,1007.43
2018-03-15T04:56:26.923Z,1007.45
2018-03-15T04:57:27.340Z,1007.44
2018-03-15T04:58:27.780Z,1007.44
2018-03-15T04:59:28.193Z,1007.42
2018-03-15T05:00:28.598Z,1007.43
2018-03-15T05:01:29.028Z,1007.45
2018-03-15T05:02:29.448Z,1007.47
2018-03-15T05:03:29.875Z,1007.55
2018-03-15T05:04:30.290Z,1007.44
2018-03-15T05:05:30.708Z,1007.49
2018-03-15T05:06:31.129Z,1007.49
2018-03-15T05:07:31.547Z,1007.47
2018-03-15T05:08:31.980Z,1007.50
2018-03-15T05:09:32.397Z,1007.52
2018-03-15T05:10:32.808Z,1007.46
2018-03-15T05:11:33.243Z,1007.48
2018-03-15T05:12:33.659Z,1007.48
2018-03-15T05:13:34.079Z,1007.55
2018-03-15T05:14:34.496Z,1007.53
2018-03-15T05:15:34.921Z,1007.50
2018-03-15T05:16:35.357Z,1007.56
2018-03-15T05:17:35.764Z,1007.57
2018-03-15T05:18:36.187Z,1007.56
2018-03-15T05:19:36.607Z,1007.54
2018-03-15T05:20:37.026Z,1007.56
2018-03-15T05:21:37.446Z,1007.57
2018-03-15T05:22:37.871Z,1007.64
2018-03-15T05:23:38.290Z,1007.56
2018-03-15T05:24:38.714Z,1007.59
2018-03-15T05:25:39.132Z,1007.56
2018-03-15T05:26:39.553Z,1007.52
2018-03-15T05:27:39.974Z,1007.54
2018-03-15T05:28:40.396Z,1007.54
2018-03-15T05:29:40.824Z,1007.51
2018-03-15T05:30:41.241Z,1007.51
2018-03-15T05:31:41.665Z,1007.51
2018-03-15T05:32:42.077Z,1007.49
2018-03-15T05:33:42.504Z,1007.47
2018-03-15T05:34:42.922Z,1007.55
2018-03-15T05:35:43.345Z,1007.51
2018-03-15T05:36:43.767Z,1007.48
2018-03-15T05:37:44.200Z,1007.51
2018-03-15T05:38:44.611Z,1007.48
2018-03-15T05:39:45.028Z,1007.50
2018-03-15T05:40:45.444Z,1007.51
2018-03-15T05:41:45.864Z,1007.47
2018-03-15T05:42:46.291Z,1007.48
2018-03-15T05:43:46.714Z,1007.49
2018-03-15T05:44:47.131Z,1007.46
2018-03-15T05:45:47.563Z,1007.49
2018-03-15T05:46:47.978Z,1007.41
2018-03-15T05:47:48.398Z,1007.44
2018-03-15T05:48:48.816Z,1007.49
2018-03-15T05:49:49.271Z,1007.53
2018-03-15T05:50:49.661Z,1007.47
2018-03-15T05:51:50.079Z,1007.43
2018-03-15T05:52:50.509Z,1007.44
2018-03-15T05:53:50.929Z,1007.49
2018-03-15T05:54:51.352Z,1007.54
2018-03-15T05:55:51.766Z,1007.52
2018-03-15T05:56:52.192Z,1007.55
2018-03-15T05:57:52.621Z,1007.58
2018-03-15T05:58:53.040Z,1007.57
2018-03-15T05:59:53.455Z,1007.61
2018-03-15T06:00:53.871Z,1007.63
2018-03-15T06:01:54.300Z,1007.63
2018-03-15T06:02:54.720Z,1007.61
2018-03-15T06:03:55.136Z,1007.60
2018-03-15T06:04:55.555Z,1007.65
2018-03-15T06:05:55.986Z,1007.63
2018-03-15T06:06:56.401Z,1007.62
2018-03-15T06:07:56.819Z,1007.60
2018-03-15T06:08:57.236Z,1007.59
2018-03-15T06:09:57.659Z,1007.63
2018-03-15T06:10:58.078Z,1007.59
2018-03-15T06:11:58.502Z,1007.62
2018-03-15T06:12:58.926Z,1007.61
2018-03-15T06:13:59.346Z,1007.60
2018-03-15T06:14:59.778Z,1007.57
2018-03-15T06:16:00.194Z,1007.58
2018-03-15T06:17:00.631Z,1007.59
2018-03-15T06:18:01.050Z,1007.56
2018-03-15T06:19:01.462Z,1007.58
2018-03-15T06:20:01.872Z,1007.60
2018-03-15T06:21:02.293Z,1007.56
2018-03-15T06:22:02.734Z,1007.60
2018-03-15T06:23:03.125Z,1007.54
2018-03-15T06:24:03.564Z,1007.57
2018-03-15T06:25:03.987Z,1007.61
2018-03-15T06:26:04.398Z,1007.60
2018-03-15T06:27:04.817Z,1007.55
2018-03-15T06:28:05.236Z,1007.61
2018-03-15T06:29:05.663Z,1007.58
2018-03-15T06:30:06.099Z,1007.66
2018-03-15T06:31:06.502Z,1007.63
2018-03-15T06:32:06.926Z,1007.61
2018-03-15T06:33:07.341Z,1007.67
2018-03-15T06:34:07.767Z,1007.66
2018-03-15T06:35:08.192Z,1007.73
2018-03-15T06:36:08.607Z,1007.74
2018-03-15T06:37:09.037Z,1007.74
2018-03-15T06:38:09.458Z,1007.72
2018-03-15T06:39:09.894Z,1007.73
2018-03-15T06:40:10.308Z,1007.77
2018-03-15T06:41:10.711Z,1007.72
2018-03-15T06:42:11.137Z,1007.65
2018-03-15T06:43:11.551Z,1007.68
2018-03-15T06:44:11.981Z,1007.73
2018-03-15T06:45:12.391Z,1007.67
2018-03-15T06:46:12.816Z,1007.69
2018-03-15T06:47:13.242Z,1007.74
2018-03-15T06:48:13.657Z,1007.75
2018-03-15T06:49:14.077Z,1007.74
2018-03-15T06:50:14.507Z,1007.77
2018-03-15T06:51:14.948Z,1007.75
2018-03-15T06:52:15.348Z,1007.84
2018-03-15T06:53:15.763Z,1007.84
2018-03-15T06:54:16.290Z,1007.77
2018-03-15T06:55:16.601Z,1007.80
2018-03-15T06:56:17.024Z,1007.84
2018-03-15T06:57:17.447Z,1007.78
2018-03-15T06:58:17.865Z,1007.86
2018-03-15T06:59:18.292Z,1007.82
2018-03-15T07:00:18.722Z,1007.83
2018-03-15T07:01:19.139Z,1007.83
2018-03-15T07:02:19.556Z,1007.86
2018-03-15T07:03:19.976Z,1007.80
2018-03-15T07:04:20.394Z,1007.80
2018-03-15T07:05:20.816Z,1007.88
2018-03-15T07:06:21.230Z,1007.85
2018-03-15T07:07:21.657Z,1007.90
2018-03-15T07:08:22.079Z,1007.87
2018-03-15T07:09:22.537Z,1007.89
2018-03-15T07:10:22.947Z,1007.82
2018-03-15T07:11:23.339Z,1007.89
2018-03-15T07:12:23.765Z,1007.88
2018-03-15T07:13:24.181Z,1007.87
2018-03-15T07:14:24.601Z,1007.92
2018-03-15T07:15:25.023Z,1007.91
2018-03-15T07:16:25.442Z,1007.92
2018-03-15T07:17:25.862Z,1007.89
2018-03-15T07:18:26.283Z,1007.93
2018-03-15T07:19:26.704Z,1007.93
2018-03-15T07:20:27.128Z,1007.89
2018-03-15T07:21:27.565Z,1007.85
2018-03-15T07:22:27.989Z,1007.94
2018-03-15T07:23:28.390Z,1007.87
2018-03-15T07:24:28.839Z,1007.85
2018-03-15T07:25:29.230Z,1007.87
2018-03-15T07:26:29.655Z,1007.86
2018-03-15T07:27:30.077Z,1007.87
2018-03-15T07:28:30.496Z,1007.87
2018-03-15T07:29:30.912Z,1007.92
2018-03-15T07:30:31.337Z,1007.94
2018-03-15T07:31:31.757Z,1007.95
2018-03-15T07:32:32.210Z,1007.95
2018-03-15T07:33:32.604Z,1007.92
2018-03-15T07:34:33.024Z,1007.87
2018-03-15T07:35:33.438Z,1007.88
2018-03-15T07:36:33.861Z,1007.87
2018-03-15T07:37:34.281Z,1007.82
2018-03-15T07:38:34.712Z,1007.86
2018-03-15T07:39:35.139Z,1007.82
2018-03-15T07:40:35.548Z,1007.90
2018-03-15T07:41:35.969Z,1007.85
2018-03-15T07:42:36.380Z,1007.86
2018-03-15T07:43:36.818Z,1007.88
2018-03-15T07:44:37.283Z,1007.83
2018-03-15T07:45:37.654Z,1007.87
2018-03-15T07:46:38.075Z,1007.91
2018-03-15T07:47:38.497Z,1007.90
2018-03-15T07:48:38.918Z,1007.94
2018-03-15T07:49:39.362Z,1007.91
2018-03-15T07:50:39.756Z,1007.92
2018-03-15T07:51:40.178Z,1007.95
2018-03-15T07:52:40.597Z,1007.91
2018-03-15T07:53:41.011Z,1007.90
2018-03-15T07:54:41.435Z,1007.89
2018-03-15T07:55:41.857Z,1007.91
2018-03-15T07:56:42.291Z,1007.94
2018-03-15T07:57:42.699Z,1007.95
2018-03-15T07:58:43.122Z,1008.05
2018-03-15T07:59:43.537Z,1007.92
2018-03-15T08:00:43.959Z,1007.94
2018-03-15T08:01:44.380Z,1007.93
2018-03-15T08:02:44.810Z,1007.97
2018-03-15T08:03:45.229Z,1007.94
2018-03-15T08:04:45.643Z,1007.96
2018-03-15T08:05:46.062Z,1007.99
2018-03-15T08:06:46.501Z,1007.93
2018-03-15T08:07:46.907Z,1007.93
2018-03-15T08:08:47.327Z,1007.91
2018-03-15T08:09:47.748Z,1007.86
2018-03-15T08:10:48.169Z,1007.89
2018-03-15T08:11:48.588Z,1007.86
2018-03-15T08:12:49.022Z,1007.86
2018-03-15T08:13:49.433Z,1007.83
2018-03-15T08:14:49.849Z,1007.82
2018-03-15T08:15:50.272Z,1007.85
2018-03-15T08:16:50.694Z,1007.85
2018-03-15T08:17:51.109Z,1007.85
2018-03-15T08:18:51.531Z,1007.84
2018-03-15T08:19:51.956Z,1007.83
2018-03-15T08:20:52.384Z,1007.85
2018-03-15T08:21:52.821Z,1007.75
2018-03-15T08:22:53.217Z,1007.81
2018-03-15T08:23:53.639Z,1007.77
2018-03-15T08:24:54.057Z,1007.85
2018-03-15T08:25:54.476Z,1007.76
2018-03-15T08:26:54.903Z,1007.73
2018-03-15T08:27:55.322Z,1007.75
2018-03-15T08:28:55.734Z,1007.75
2018-03-15T08:29:56.179Z,1007.75
2018-03-15T08:30:56.581Z,1007.66
2018-03-15T08:31:57.888Z,1007.67
2018-03-15T08:32:57.424Z,1007.65
2018-03-15T08:33:57.845Z,1007.65
2018-03-15T08:34:58.263Z,1007.67
2018-03-15T08:35:58.686Z,1007.65
2018-03-15T08:36:59.111Z,1007.63
2018-03-15T08:37:59.530Z,1007.57
2018-03-15T08:38:59.949Z,1007.57
2018-03-15T08:40:00.385Z,1007.62
2018-03-15T08:41:00.793Z,1007.58
2018-03-15T08:42:01.220Z,1007.60
2018-03-15T08:43:01.629Z,1007.55
2018-03-15T08:44:02.067Z,1007.56
2018-03-15T08:45:02.476Z,1007.54
2018-03-15T08:46:02.899Z,1007.52
2018-03-15T08:47:03.318Z,1007.50
2018-03-15T08:48:03.745Z,1007.54
2018-03-15T08:49:04.164Z,1007.49
2018-03-15T08:50:04.588Z,1007.50
2018-03-15T08:51:05.012Z,1007.50
2018-03-15T08:52:05.424Z,1007.58
2018-03-15T08:53:05.846Z,1007.52
2018-03-15T08:54:06.267Z,1007.45
2018-03-15T08:55:06.688Z,1007.50
2018-03-15T08:56:07.108Z,1007.50
2018-03-15T08:57:07.562Z,1007.46
2018-03-15T08:58:07.960Z,1007.47
2018-03-15T08:59:08.381Z,1007.42
2018-03-15T09:00:08.805Z,1007.43
2018-03-15T09:01:09.222Z,1007.38
2018-03-15T09:02:09.641Z,1007.44
2018-03-15T09:03:10.059Z,1007.38
2018-03-15T09:04:10.481Z,1007.43
2018-03-15T09:05:11.047Z,1007.45
2018-03-15T09:06:11.326Z,1007.39
2018-03-15T09:07:11.746Z,1007.36
2018-03-15T09:08:12.170Z,1007.42
2018-03-15T09:09:12.627Z,1007.39
2018-03-15T09:10:13.008Z,1007.37
2018-03-15T09:11:13.445Z,1007.34
2018-03-15T09:12:13.858Z,1007.29
2018-03-15T09:13:14.273Z,1007.32
2018-03-15T09:14:14.729Z,1007.39
2018-03-15T09:15:15.117Z,1007.34
2018-03-15T09:16:15.538Z,1007.36
2018-03-15T09:17:15.965Z,1007.35
2018-03-15T09:18:16.397Z,1007.29
2018-03-15T09:19:16.814Z,1007.30
2018-03-15T09:20:17.239Z,1007.30
2018-03-15T09:21:17.651Z,1007.32
2018-03-15T09:22:18.069Z,1007.28
2018-03-15T09:23:18.491Z,1007.27
2018-03-15T09:24:18.923Z,1007.24
2018-03-15T09:25:19.333Z,1007.25
2018-03-15T09:26:19.765Z,1007.26
2018-03-15T09:27:20.179Z,1007.22
2018-03-15T09:28:20.604Z,1007.21
2018-03-15T09:29:21.026Z,1007.20
2018-03-15T09:30:21.461Z,1007.18
2018-03-15T09:31:21.874Z,1007.21
2018-03-15T09:32:22.288Z,1007.18
2018-03-15T09:33:22.712Z,1007.22
2018-03-15T09:34:23.136Z,1007.17
2018-03-15T09:35:23.552Z,1007.17
2018-03-15T09:36:23.983Z,1007.11
2018-03-15T09:37:24.416Z,1007.12
2018-03-15T09:38:24.824Z,1007.10
2018-03-15T09:39:25.243Z,1007.04
2018-03-15T09:40:25.679Z,1007.09
2018-03-15T09:41:26.093Z,1007.10
2018-03-15T09:42:26.513Z,1007.05
2018-03-15T09:43:26.936Z,1006.99
2018-03-15T09:44:27.374Z,1007.04
2018-03-15T09:45:27.790Z,1007.01
2018-03-15T09:46:28.200Z,1007.04
2018-03-15T09:47:28.627Z,1007.04
2018-03-15T09:48:29.054Z,1007.01
2018-03-15T09:49:29.473Z,1007.07
2018-03-15T09:50:29.898Z,1007.05
2018-03-15T09:51:30.317Z,1007.06
2018-03-15T09:52:30.738Z,1007.03
2018-03-15T09:53:31.160Z,1007.02
2018-03-15T09:54:31.580Z,1007.01
2018-03-15T09:55:32.008Z,1006.98
2018-03-15T09:56:32.428Z,1006.97
2018-03-15T09:57:32.856Z,1006.94
2018-03-15T09:58:33.269Z,1006.98
2018-03-15T09:59:33.685Z,1006.97
2018-03-15T10:00:34.157Z,1006.95
2018-03-15T10:01:34.532Z,1006.93
2018-03-15T10:02:34.982Z,1006.97
2018-03-15T10:03:35.385Z,1006.92
2018-03-15T10:04:35.810Z,1006.83
2018-03-15T10:05:36.223Z,1006.92
2018-03-15T10:06:36.659Z,1006.91
2018-03-15T10:07:37.068Z,1006.91
2018-03-15T10:08:37.500Z,1006.89
2018-03-15T10:09:37.924Z,1006.92
2018-03-15T10:10:38.330Z,1006.87
2018-03-15T10:11:38.766Z,1006.87
2018-03-15T10:12:39.180Z,1006.88
2018-03-15T10:13:39.614Z,1006.78
2018-03-15T10:14:40.030Z,1006.84
2018-03-15T10:15:40.468Z,1006.83
2018-03-15T10:16:40.879Z,1006.84
2018-03-15T10:17:41.298Z,1006.81
2018-03-15T10:18:41.717Z,1006.82
2018-03-15T10:19:42.137Z,1006.83
2018-03-15T10:20:42.566Z,1006.82
2018-03-15T10:21:42.983Z,1006.83
2018-03-15T10:22:43.403Z,1006.83
2018-03-15T10:23:43.828Z,1006.81
2018-03-15T10:24:44.251Z,1006.81
2018-03-15T10:25:44.665Z,1006.82
2018-03-15T10:26:45.096Z,1006.86
2018-03-15T10:27:45.519Z,1006.82
2018-03-15T10:28:45.968Z,1006.84
2018-03-15T10:29:46.374Z,1006.88
2018-03-15T10:30:46.795Z,1006.81
2018-03-15T10:31:47.206Z,1006.82
2018-03-15T10:32:47.643Z,1006.79
2018-03-15T10:33:48.061Z,1006.80
2018-03-15T10:34:48.534Z,1006.78
2018-03-15T10:35:48.894Z,1006.81
2018-03-15T10:36:49.330Z,1006.80
2018-03-15T10:37:49.744Z,1006.76
2018-03-15T10:38:50.172Z,1006.78
2018-03-15T10:39:50.586Z,1006.75
2018-03-15T10:40:51.018Z,1006.78
2018-03-15T10:41:51.460Z,1006.79
2018-03-15T10:42:51.865Z,1006.70
2018-03-15T10:43:52.283Z,1006.71
2018-03-15T10:44:52.723Z,1006.69
2018-03-15T10:45:53.141Z,1006.72
2018-03-15T10:46:53.559Z,1006.68
2018-03-15T10:47:53.986Z,1006.67
2018-03-15T10:48:54.406Z,1006.64
2018-03-15T10:49:54.821Z,1006.65
2018-03-15T10:50:55.253Z,1006.66
2018-03-15T10:51:55.680Z,1006.61
2018-03-15T10:52:56.095Z,1006.65
2018-03-15T10:53:56.522Z,1006.62
2018-03-15T10:54:56.948Z,1006.59
2018-03-15T10:55:57.364Z,1006.60
2018-03-15T10:56:57.792Z,1006.60
2018-03-15T10:57:58.251Z,1006.58
2018-03-15T10:58:58.636Z,1006.55
2018-03-15T10:59:59.144Z,1006.55
2018-03-15T11:00:59.510Z,1006.52
2018-03-15T11:01:59.917Z,1006.48
2018-03-15T11:03:00.343Z,1006.47
2018-03-15T11:04:00.759Z,1006.48
2018-03-15T11:05:01.202Z,1006.49
2018-03-15T11:06:01.616Z,1006.47
2018-03-15T11:07:02.033Z,1006.45
2018-03-15T11:08:02.454Z,1006.46
2018-03-15T11:09:02.886Z,1006.44
2018-03-15T11:10:03.308Z,1006.41
2018-03-15T11:11:03.728Z,1006.41
2018-03-15T11:12:04.175Z,1006.48
2018-03-15T11:13:04.580Z,1006.47
2018-03-15T11:14:05.006Z,1006.44
2018-03-15T11:15:05.427Z,1006.47
2018-03-15T11:16:05.852Z,1006.52
2018-03-15T11:17:06.280Z,1006.49
2018-03-15T11:18:06.706Z,1006.48
2018-03-15T11:19:07.130Z,1006.46
2018-03-15T11:20:07.549Z,1006.40
2018-03-15T11:21:07.972Z,1006.52
2018-03-15T11:22:08.398Z,1006.45
2018-03-15T11:23:08.820Z,1006.41
2018-03-15T11:24:09.244Z,1006.41
2018-03-15T11:25:09.672Z,1006.42
2018-03-15T11:26:10.096Z,1006.46
2018-03-15T11:27:10.528Z,1006.42
2018-03-15T11:28:10.950Z,1006.46
2018-03-15T11:29:11.372Z,1006.39
2018-03-15T11:30:11.803Z,1006.43
2018-03-15T11:31:12.218Z,1006.45
2018-03-15T11:32:12.655Z,1006.45
2018-03-15T11:33:13.065Z,1006.39
2018-03-15T11:34:13.488Z,1006.41
2018-03-15T11:35:13.918Z,1006.37
2018-03-15T11:36:14.335Z,1006.38
2018-03-15T11:37:14.759Z,1006.35
2018-03-15T11:38:15.185Z,1006.35
2018-03-15T11:39:15.610Z,1006.30
2018-03-15T11:40:16.042Z,1006.35
2018-03-15T11:41:16.480Z,1006.33
2018-03-15T11:42:16.887Z,1006.36
2018-03-15T11:43:17.310Z,1006.29
2018-03-15T11:44:17.734Z,1006.30
2018-03-15T11:45:18.165Z,1006.28
2018-03-15T11:46:18.581Z,1006.28
2018-03-15T11:47:19.008Z,1006.33
2018-03-15T11:48:19.432Z,1006.22
2018-03-15T11:49:19.860Z,1006.29
2018-03-15T11:50:20.281Z,1006.23
2018-03-15T11:51:20.708Z,1006.24
2018-03-15T11:52:21.131Z,1006.12
2018-03-15T11:53:21.564Z,1006.27
2018-03-15T11:54:21.974Z,1006.21
2018-03-15T11:55:22.413Z,1006.28
2018-03-15T11:56:22.827Z,1006.17
2018-03-15T11:57:23.250Z,1006.12
2018-03-15T11:58:23.680Z,1006.16
2018-03-15T11:59:24.101Z,1006.12
2018-03-15T12:00:24.529Z,1006.13
2018-03-15T12:01:24.948Z,1006.09
2018-03-15T12:02:25.378Z,1006.08
2018-03-15T12:03:25.799Z,1006.09
2018-03-15T12:04:26.222Z,1006.05
2018-03-15T12:05:26.656Z,1006.06
2018-03-15T12:06:27.092Z,1006.04
2018-03-15T12:07:27.503Z,1006.07
2018-03-15T12:08:27.933Z,1006.08
2018-03-15T12:09:28.344Z,1006.09
2018-03-15T12:10:28.779Z,1006.02